La Union, Honduras

5:18 PM CST on April 30, 2017 (GMT -0600)
Goloson International | | Change Station

Elev 10 ft 15.73 °N, 86.87 °W | Updated 18 minutes ago

Partly Cloudy
Partly Cloudy
90 °F
Feels Like 105 °F
N
8
Wind Variable Wind from NNE

Today
High -- | Low -- °F
--% Chance of Precip.
Yesterday
High -- | Low -- °F
Precip. -- in
Pressure 29.74 in
Visibility 4.3 miles
Clouds Few 2600 ft
Scattered Clouds 20000 ft
Heat Index 105 °F
Dew Point 79 °F
Humidity 70%
Rainfall 0.00 in
Snow Depth Not available.
5:24 AM 6:06 PM
Waxing Crescent, 27% visible
METAR MHLC 302300Z 03007KT 7000 FEW026 SCT200 32/26 Q1007 A2974 NOSIG
Pressure 29.74 in
Visibility 4.3 miles
Clouds Few 2600 ft
Scattered Clouds 20000 ft
Heat Index 105 °F
Dew Point 79 °F
Humidity 70%
Rainfall 0.00 in
Snow Depth Not available.
5:24 AM 6:06 PM
Waxing Crescent, 27% visible
METAR MHLC 302300Z 03007KT 7000 FEW026 SCT200 32/26 Q1007 A2974 NOSIG

Get Severe Weather Alerts

Thanks for signing up!

Be on the lookout for a verification email in your inbox.

You'll start receiving the daily forecast at 8 AM.

×

10-Day Weather Forecast

No radar image for this location.
×

Almanac

Astronomy

Apr. 30, 2017 Rise Set
Actual Time
Civil Twilight
Nautical Twilight
Astronomical Twilight
Moon
Length of Visible Light
Length of Day
Tomorrow will be .
, % of the Moon is Illuminated

Today's Extremes

Country Highs Country Lows

Community

WunderPhotos

WunderBlog® & News

Nearby

Air Quality

  Air Quality AQ Index Pollutant
Not available.

Snow Depth

Station Depth Elevation

Earthquake Activity

City Distance Mag. Time & Date
Minimum magnitude displayed is 2.5.

Coastal Water Temperatures

Place Temperature

Stations

Nearby Weather Stations

Station Location Temp. Windchill Dew Point Humidity Wind Precip. Elev Updated Type